Naples Municipal Airport
KAPF : rendu visible

Aérodrome :











RETROUVEZ-NOUS SUR...

 
LOGIN :

S'inscrire | Disclaimer

   EN    FR    IT 

 









Légende :    VFR   VFR Marginal   IFR   IFR Intensif   IFR Très Intensif
Visi : 
Plafond : 
>= 8 km
>= 3000ft
5 à 8 km
1000 à 3000 ft
1500m à 5 km
500 à 1000 ft
800 à 1500m
200 à 500 ft
< 800m
< 200 ft
Symboles :   Orages  Brouillard  Fortes neiges  Fortes précipitations  Vent > 20 kt






- Altitude de l'aérodrome : 8 ft


KAPF - Naples Municipal

DERNIER METAR :
  • 120953Z AUTO 06005KT 10SM CLR 19/17 A2995 RMK AO2 SLP140 T01890172 $

METARs EXPIRÉS :
  • 120853Z AUTO 00000KT 10SM CLR 19/17 A2996 RMK AO2 SLP143 T01940172 55013 $
  • 120753Z AUTO 00000KT 10SM CLR 20/17 A2995 RMK AO2 SLP142 T02000167 $

TAF KAPF
Valide du 12 à 10h jusqu'au 13 à 06h UTC


120934Z 1210/1306 VRB03KT P6SM FEW010
FM121400 11005KT P6SM FEW020 FEW250
FM121700 24007KT P6SM FEW040 SCT250
FM122000 29007KT P6SM FEW035 SCT250
FM130200 35005KT P6SM FEW050 SCT250



MET'MAP, la Météo Aéronautique d'un coup d'oeil ! - Copyright ORBIFLY Décembre 2007 - Disclaimer

ORBIFLY MET'MAP TEAM :

Programmation & Développement : Alexandra Zaïnal
Conception & Développement : Baudouin d'Aumeries
Co-Programmation & Développement : Marc-Olivier Méhu
Soutien technique & logistique : Manuel Goepfert

Contact : metmap@orbifly.com




SOURCES & CREDITS :

   NOAA       Earth
Advisory